createdAt,value
2018-05-10T00:00:35.612Z,25.53
2018-05-10T00:03:02.868Z,20.67
2018-05-10T00:05:29.234Z,15.93
2018-05-10T00:07:55.657Z,23.80
2018-05-10T00:10:22.674Z,33.30
2018-05-10T00:12:48.977Z,20.27
2018-05-10T00:15:15.331Z,20.47
2018-05-10T00:17:41.679Z,26.40
2018-05-10T00:20:08.081Z,18.20
2018-05-10T00:22:34.436Z,22.33
2018-05-10T00:25:00.845Z,26.90
2018-05-10T00:27:27.161Z,20.13
2018-05-10T00:29:53.589Z,21.77
2018-05-10T00:32:19.948Z,35.53
2018-05-10T00:34:46.307Z,18.73
2018-05-10T00:37:12.612Z,22.03
2018-05-10T00:39:38.956Z,15.63
2018-05-10T00:42:06.072Z,23.13
2018-05-10T00:44:32.391Z,19.80
2018-05-10T00:46:58.733Z,24.03
2018-05-10T00:49:25.097Z,26.77
2018-05-10T00:51:52.163Z,25.07
2018-05-10T00:54:37.156Z,23.57
2018-05-10T00:57:03.499Z,23.70
2018-05-10T00:59:29.865Z,23.30
2018-05-10T01:01:56.274Z,24.87
2018-05-10T01:04:22.609Z,20.53
2018-05-10T01:06:48.996Z,21.90
2018-05-10T01:09:16.066Z,22.10
2018-05-10T01:11:42.415Z,19.90
2018-05-10T01:14:08.747Z,22.03
2018-05-10T01:16:35.066Z,30.53
2018-05-10T01:19:01.507Z,30.07
2018-05-10T01:21:27.834Z,22.00
2018-05-10T01:23:54.197Z,24.77
2018-05-10T01:26:20.625Z,22.67
2018-05-10T01:28:46.952Z,23.13
2018-05-10T01:31:13.376Z,28.00
2018-05-10T01:33:39.731Z,25.93
2018-05-10T01:36:12.128Z,22.37
2018-05-10T01:38:39.159Z,22.80
2018-05-10T01:41:05.540Z,27.70
2018-05-10T01:43:31.870Z,25.77
2018-05-10T01:45:58.279Z,20.20
2018-05-10T01:48:25.336Z,18.17
2018-05-10T01:50:51.648Z,20.53
2018-05-10T01:53:18.697Z,25.67
2018-05-10T01:55:46.094Z,19.57
2018-05-10T01:58:12.388Z,19.23
2018-05-10T02:00:39.517Z,16.27
2018-05-10T02:03:05.829Z,19.30
2018-05-10T02:05:32.156Z,26.73
2018-05-10T02:07:58.527Z,22.23
2018-05-10T02:10:25.655Z,23.90
2018-05-10T02:12:51.978Z,17.50
2018-05-10T02:15:18.296Z,19.80
2018-05-10T02:17:44.662Z,21.70
2018-05-10T02:20:10.965Z,21.17
2018-05-10T02:22:37.327Z,21.80
2018-05-10T02:25:04.415Z,19.83
2018-05-10T02:27:30.772Z,14.43
2018-05-10T02:29:57.096Z,21.73
2018-05-10T02:32:23.414Z,22.30
2018-05-10T02:34:49.746Z,22.40
2018-05-10T02:37:16.108Z,19.30
2018-05-10T02:39:42.442Z,18.10
2018-05-10T02:42:08.951Z,21.37
2018-05-10T02:44:35.325Z,16.33
2018-05-10T02:47:01.729Z,19.07
2018-05-10T02:49:28.076Z,19.97
2018-05-10T02:51:54.406Z,17.33
2018-05-10T02:54:20.888Z,15.70
2018-05-10T02:56:47.256Z,21.50
2018-05-10T02:59:13.573Z,18.40
2018-05-10T03:01:39.912Z,18.03
2018-05-10T03:04:06.213Z,15.57
2018-05-10T03:06:32.552Z,13.97
2018-05-10T03:08:58.904Z,15.20
2018-05-10T03:11:25.210Z,19.43
2018-05-10T03:13:51.556Z,23.30
2018-05-10T03:16:17.863Z,17.53
2018-05-10T03:18:44.960Z,20.17
2018-05-10T03:21:11.283Z,20.20
2018-05-10T03:23:37.619Z,13.13
2018-05-10T03:26:03.918Z,18.53
2018-05-10T03:28:30.280Z,23.27
2018-05-10T03:30:56.582Z,11.37
2018-05-10T03:33:22.951Z,15.53
2018-05-10T03:35:49.539Z,19.63
2018-05-10T03:38:15.895Z,22.27
2018-05-10T03:40:42.210Z,19.03
2018-05-10T03:43:08.568Z,18.33
2018-05-10T03:45:34.905Z,20.00
2018-05-10T03:48:01.245Z,18.70
2018-05-10T03:50:27.616Z,19.70
2018-05-10T03:52:54.677Z,23.83
2018-05-10T03:55:20.973Z,26.10
2018-05-10T03:57:47.299Z,19.03
2018-05-10T04:00:13.646Z,28.80
2018-05-10T04:06:34.019Z,22.47
2018-05-10T04:09:18.818Z,21.90
2018-05-10T04:11:45.137Z,20.87
2018-05-10T04:14:11.497Z,19.43
2018-05-10T04:16:37.831Z,17.83
2018-05-10T04:19:04.860Z,23.27
2018-05-10T04:21:31.169Z,24.37
2018-05-10T04:23:57.514Z,19.80
2018-05-10T04:26:23.814Z,20.73
2018-05-10T04:28:50.177Z,21.27
2018-05-10T04:46:52.788Z,19.13
2018-05-10T04:49:19.887Z,19.53
2018-05-10T04:51:46.214Z,18.30
2018-05-10T05:09:13.083Z,9.43
2018-05-10T05:11:39.439Z,20.90
2018-05-10T05:14:05.730Z,25.13
2018-05-10T05:16:32.020Z,20.63
2018-05-10T05:18:59.052Z,18.97
2018-05-10T05:21:25.451Z,14.80
2018-05-10T05:23:51.707Z,13.83
2018-05-10T05:26:18.059Z,14.90
2018-05-10T05:28:45.120Z,11.57
2018-05-10T05:31:11.568Z,16.73
2018-05-10T05:33:37.965Z,13.40
2018-05-10T05:36:04.322Z,12.27
2018-05-10T05:38:30.672Z,14.07
2018-05-10T05:40:57.057Z,12.77
2018-05-10T05:43:24.281Z,11.60
2018-05-10T05:45:50.529Z,14.40
2018-05-10T05:48:16.871Z,12.13
2018-05-10T05:50:43.987Z,13.50
2018-05-10T05:53:10.322Z,12.90
2018-05-10T05:55:36.641Z,15.17
2018-05-10T05:58:02.984Z,14.43
2018-05-10T06:00:29.336Z,14.43
2018-05-10T06:02:55.678Z,12.07
2018-05-10T06:05:22.743Z,17.80
2018-05-10T06:07:49.799Z,11.30
2018-05-10T06:10:16.194Z,11.73
2018-05-10T06:12:42.575Z,12.80
2018-05-10T06:15:08.960Z,20.37
2018-05-10T06:17:35.585Z,12.10
2018-05-10T06:20:02.002Z,17.10
2018-05-10T06:22:28.332Z,14.90
2018-05-10T06:24:54.712Z,11.80
2018-05-10T06:27:21.059Z,14.10
2018-05-10T06:29:48.147Z,15.60
2018-05-10T06:32:14.522Z,12.50
2018-05-10T06:34:40.912Z,13.30
2018-05-10T06:37:07.314Z,9.80
2018-05-10T06:39:33.690Z,14.77
2018-05-10T06:42:00.024Z,15.77
2018-05-10T06:44:26.400Z,17.20
2018-05-10T06:46:52.741Z,19.43
2018-05-10T06:49:20.054Z,12.97
2018-05-10T06:51:46.452Z,12.90
2018-05-10T06:54:24.490Z,12.13
2018-05-10T06:56:51.092Z,16.77
2018-05-10T07:05:23.510Z,14.03
2018-05-10T07:07:49.842Z,13.93
2018-05-10T07:10:16.280Z,10.33
2018-05-10T07:12:45.906Z,8.43
2018-05-10T07:15:12.236Z,19.27
2018-05-10T07:17:38.538Z,9.80
2018-05-10T07:20:04.889Z,18.97
2018-05-10T07:22:31.509Z,17.43
2018-05-10T07:24:57.943Z,14.27
2018-05-10T07:27:24.228Z,19.43
2018-05-10T07:29:51.316Z,10.87
2018-05-10T07:32:17.641Z,13.57
2018-05-10T07:34:43.995Z,9.00
2018-05-10T07:37:24.215Z,13.80
2018-05-10T07:39:50.509Z,17.50
2018-05-10T07:42:16.867Z,15.70
2018-05-10T07:44:43.947Z,13.20
2018-05-10T07:47:10.344Z,14.33
2018-05-10T07:49:37.426Z,13.07
2018-05-10T07:52:04.010Z,12.70
2018-05-10T07:54:40.224Z,12.00
2018-05-10T07:57:06.553Z,15.63
2018-05-10T07:59:33.039Z,12.10
2018-05-10T08:01:59.389Z,10.17
2018-05-10T08:04:47.467Z,15.07
2018-05-10T08:07:13.865Z,15.63
2018-05-10T08:09:41.187Z,20.37
2018-05-10T08:12:07.534Z,12.90
2018-05-10T08:14:33.823Z,12.73
2018-05-10T08:17:00.321Z,18.00
2018-05-10T08:19:27.434Z,12.43
2018-05-10T08:21:53.798Z,20.00
2018-05-10T08:24:20.798Z,9.90
2018-05-10T08:26:47.115Z,20.33
2018-05-10T08:29:13.429Z,13.50
2018-05-10T08:31:39.876Z,14.30
2018-05-10T08:34:06.204Z,15.77
2018-05-10T08:36:32.580Z,13.17
2018-05-10T08:38:58.894Z,17.83
2018-05-10T08:41:25.201Z,13.23
2018-05-10T08:43:51.486Z,11.37
2018-05-10T08:46:17.817Z,12.07
2018-05-10T08:48:44.151Z,15.63
2018-05-10T08:51:10.596Z,20.97
2018-05-10T08:53:36.962Z,24.20
2018-05-10T08:56:03.290Z,19.87
2018-05-10T08:58:29.654Z,13.50
2018-05-10T09:00:56.130Z,19.23
2018-05-10T09:03:23.153Z,18.83
2018-05-10T09:05:49.470Z,9.90
2018-05-10T09:08:15.790Z,18.60
2018-05-10T09:10:46.173Z,18.47
2018-05-10T09:13:12.689Z,21.47
2018-05-10T09:15:39.040Z,14.13
2018-05-10T09:18:05.369Z,14.23
2018-05-10T09:20:32.390Z,24.77
2018-05-10T09:22:58.718Z,23.67
2018-05-10T09:25:25.179Z,16.60
2018-05-10T09:27:52.233Z,17.37
2018-05-10T09:30:18.493Z,23.80
2018-05-10T09:32:44.811Z,27.40
2018-05-10T09:35:11.090Z,18.73
2018-05-10T09:37:37.827Z,18.13
2018-05-10T09:40:04.942Z,17.10
2018-05-10T09:42:31.261Z,14.73
2018-05-10T09:44:57.621Z,15.43
2018-05-10T09:47:23.911Z,17.00
2018-05-10T09:49:51.007Z,23.50
2018-05-10T09:52:17.348Z,14.57
2018-05-10T09:54:43.674Z,17.37
2018-05-10T09:57:10.042Z,14.07
2018-05-10T09:59:37.092Z,18.60
2018-05-10T10:02:04.164Z,23.70
2018-05-10T10:04:30.507Z,22.87
2018-05-10T10:06:57.600Z,13.03
2018-05-10T10:09:24.171Z,16.17
2018-05-10T10:11:50.553Z,16.07
2018-05-10T10:14:16.879Z,18.37
2018-05-10T10:16:43.190Z,16.17
2018-05-10T10:19:09.482Z,15.93
2018-05-10T10:21:36.616Z,19.57
2018-05-10T10:24:02.970Z,12.23
2018-05-10T10:26:29.299Z,14.30
2018-05-10T10:28:56.369Z,14.53
2018-05-10T10:31:22.711Z,13.73
2018-05-10T10:33:49.033Z,18.70
2018-05-10T10:36:15.362Z,10.80
2018-05-10T10:38:41.690Z,12.43
2018-05-10T10:41:08.034Z,15.77
2018-05-10T10:43:34.587Z,17.27
2018-05-10T10:46:01.023Z,17.37
2018-05-10T10:48:27.419Z,14.40
2018-05-10T10:50:53.822Z,12.70
2018-05-10T10:53:20.155Z,16.23
2018-05-10T10:55:46.482Z,14.50
2018-05-10T10:58:12.809Z,18.23
2018-05-10T11:00:40.175Z,7.37
2018-05-10T11:03:07.287Z,16.37
2018-05-10T11:05:33.716Z,10.23
2018-05-10T11:08:00.021Z,12.83
2018-05-10T11:10:26.351Z,15.37
2018-05-10T11:12:52.674Z,7.73
2018-05-10T11:15:18.995Z,14.87
2018-05-10T11:17:45.316Z,10.07
2018-05-10T11:20:12.196Z,10.67
2018-05-10T11:22:38.595Z,12.43
2018-05-10T11:25:04.840Z,11.67
2018-05-10T11:27:31.900Z,10.47
2018-05-10T11:29:58.182Z,12.13
2018-05-10T11:32:24.497Z,7.27
2018-05-10T11:34:50.789Z,11.30
2018-05-10T11:37:17.103Z,15.87
2018-05-10T11:39:44.158Z,18.73
2018-05-10T11:42:10.535Z,9.00
2018-05-10T11:44:36.883Z,12.07
2018-05-10T11:47:03.248Z,16.00
2018-05-10T11:49:30.311Z,19.60
2018-05-10T11:51:56.718Z,15.33
2018-05-10T11:54:23.816Z,14.20
2018-05-10T11:56:50.176Z,7.23
2018-05-10T11:59:16.474Z,12.53
2018-05-10T12:01:42.762Z,12.00
2018-05-10T12:04:09.052Z,8.43
2018-05-10T12:06:35.331Z,11.50
2018-05-10T12:09:02.385Z,11.10
2018-05-10T12:11:28.627Z,4.73
2018-05-10T12:13:55.278Z,10.37
2018-05-10T12:16:21.558Z,8.30
2018-05-10T12:18:49.302Z,9.63
2018-05-10T12:21:15.566Z,9.93
2018-05-10T12:23:42.560Z,10.87
2018-05-10T12:26:08.833Z,6.17
2018-05-10T12:28:35.109Z,10.77
2018-05-10T12:31:01.389Z,14.17
2018-05-10T12:33:27.670Z,9.40
2018-05-10T12:35:53.926Z,11.97
2018-05-10T12:38:20.196Z,9.83
2018-05-10T12:40:47.178Z,6.23
2018-05-10T12:43:13.421Z,11.73
2018-05-10T12:45:39.668Z,12.03
2018-05-10T12:48:05.914Z,12.17
2018-05-10T12:50:32.138Z,9.60
2018-05-10T12:52:58.386Z,7.80
2018-05-10T12:55:25.370Z,10.93
2018-05-10T12:57:51.690Z,18.63
2018-05-10T13:00:17.937Z,11.87
2018-05-10T13:02:44.241Z,10.60
2018-05-10T13:05:11.272Z,13.07
2018-05-10T13:07:38.351Z,25.10
2018-05-10T13:10:04.677Z,9.03
2018-05-10T13:12:31.017Z,10.83
2018-05-10T13:14:57.262Z,10.73
2018-05-10T13:17:23.563Z,17.93
2018-05-10T13:19:49.843Z,10.67
2018-05-10T13:22:17.703Z,10.80
2018-05-10T13:24:43.983Z,9.90
2018-05-10T13:27:11.051Z,11.57
2018-05-10T13:29:38.181Z,15.07
2018-05-10T13:32:05.632Z,5.57
2018-05-10T13:34:32.436Z,17.70
2018-05-10T13:36:59.368Z,18.50
2018-05-10T13:39:25.766Z,13.20
2018-05-10T13:41:52.085Z,16.07
2018-05-10T13:44:19.155Z,8.67
2018-05-10T13:46:45.479Z,15.00
2018-05-10T13:49:12.823Z,11.37
2018-05-10T13:51:39.875Z,13.30
2018-05-10T13:54:06.906Z,14.93
2018-05-10T13:56:33.948Z,17.37
2018-05-10T13:59:00.335Z,16.77
2018-05-10T14:01:26.668Z,12.00
2018-05-10T14:03:52.956Z,9.27
2018-05-10T14:06:20.073Z,12.03
2018-05-10T14:08:46.449Z,12.33
2018-05-10T14:11:12.871Z,9.77
2018-05-10T14:13:39.134Z,17.07
2018-05-10T14:16:05.494Z,11.87
2018-05-10T14:18:31.765Z,14.20
2018-05-10T14:20:58.759Z,10.23
2018-05-10T14:23:25.034Z,13.80
2018-05-10T14:25:52.099Z,14.87
2018-05-10T14:28:18.427Z,9.47
2018-05-10T14:30:45.507Z,14.60
2018-05-10T14:33:11.741Z,12.10
2018-05-10T14:35:38.018Z,12.27
2018-05-10T14:38:05.056Z,9.00
2018-05-10T14:40:31.410Z,9.83
2018-05-10T14:42:58.517Z,12.63
2018-05-10T14:45:24.820Z,13.00
2018-05-10T14:47:51.134Z,12.77
2018-05-10T14:50:17.444Z,10.43
2018-05-10T14:52:44.469Z,7.60
2018-05-10T14:55:10.848Z,8.43
2018-05-10T14:57:37.158Z,11.80
2018-05-10T15:00:04.200Z,7.40
2018-05-10T15:02:31.303Z,6.40
2018-05-10T15:04:57.617Z,6.37
2018-05-10T15:07:23.875Z,7.47
2018-05-10T15:09:50.185Z,14.03
2018-05-10T15:12:16.517Z,8.60
2018-05-10T15:14:42.783Z,9.10
2018-05-10T15:17:09.166Z,10.57
2018-05-10T15:19:35.503Z,6.60
2018-05-10T15:22:01.775Z,8.93
2018-05-10T15:24:28.040Z,10.83
2018-05-10T15:26:54.379Z,8.27
2018-05-10T15:29:20.719Z,6.80
2018-05-10T15:31:47.187Z,11.47
2018-05-10T15:34:13.511Z,9.97
2018-05-10T15:36:39.802Z,12.73
2018-05-10T15:39:06.145Z,8.97
2018-05-10T15:41:33.129Z,13.20
2018-05-10T15:43:59.408Z,7.40
2018-05-10T15:46:25.679Z,10.07
2018-05-10T15:48:51.998Z,7.00
2018-05-10T15:51:18.274Z,6.83
2018-05-10T15:53:44.624Z,17.30
2018-05-10T15:56:11.722Z,7.27
2018-05-10T15:58:37.995Z,12.03
2018-05-10T16:01:05.001Z,4.93
2018-05-10T16:03:31.259Z,5.23
2018-05-10T16:05:57.539Z,8.30
2018-05-10T16:08:23.851Z,6.53
2018-05-10T16:10:50.147Z,8.03
2018-05-10T16:13:16.442Z,3.97
2018-05-10T16:15:42.758Z,4.53
2018-05-10T16:18:09.039Z,6.93
2018-05-10T16:20:35.296Z,5.30
2018-05-10T16:23:02.294Z,5.10
2018-05-10T16:25:28.577Z,7.70
2018-05-10T16:27:55.574Z,8.40
2018-05-10T16:30:21.860Z,4.50
2018-05-10T16:32:48.180Z,4.33
2018-05-10T16:35:15.164Z,5.03
2018-05-10T16:37:41.411Z,11.97
2018-05-10T16:40:07.820Z,14.23
2018-05-10T16:42:34.100Z,7.67
2018-05-10T16:45:01.191Z,6.37
2018-05-10T16:47:27.446Z,5.73
2018-05-10T16:49:53.853Z,5.33
2018-05-10T16:52:20.302Z,5.17
2018-05-10T16:54:46.643Z,6.10
2018-05-10T16:57:12.893Z,7.40
2018-05-10T16:59:39.904Z,6.03
2018-05-10T17:02:06.144Z,6.63
2018-05-10T17:04:32.392Z,5.70
2018-05-10T17:06:58.720Z,6.80
2018-05-10T17:09:25.004Z,5.60
2018-05-10T17:11:51.273Z,5.20
2018-05-10T17:14:17.598Z,5.87
2018-05-10T17:16:43.909Z,8.63
2018-05-10T17:19:10.148Z,9.87
2018-05-10T17:21:36.608Z,7.53
2018-05-10T17:24:02.873Z,8.07
2018-05-10T17:26:30.080Z,6.80
2018-05-10T17:28:56.383Z,11.80
2018-05-10T17:31:22.699Z,8.97
2018-05-10T17:33:48.928Z,8.10
2018-05-10T17:36:15.225Z,8.70
2018-05-10T17:38:41.512Z,7.97
2018-05-10T17:41:07.858Z,9.60
2018-05-10T17:43:34.152Z,7.67
2018-05-10T17:46:00.437Z,11.90
2018-05-10T17:48:26.737Z,15.73
2018-05-10T17:50:53.087Z,7.33
2018-05-10T17:53:19.376Z,9.80
2018-05-10T17:55:45.625Z,13.20
2018-05-10T17:58:11.890Z,8.60
2018-05-10T18:00:38.134Z,15.23
2018-05-10T18:03:04.397Z,11.87
2018-05-10T18:05:30.743Z,6.43
2018-05-10T18:07:57.015Z,9.13
2018-05-10T18:10:24.047Z,6.87
2018-05-10T18:12:50.344Z,10.20
2018-05-10T18:15:16.612Z,8.33
2018-05-10T18:17:42.891Z,7.97
2018-05-10T18:20:09.227Z,10.23
2018-05-10T18:22:35.517Z,8.33
2018-05-10T18:25:01.901Z,7.23
2018-05-10T18:27:28.193Z,6.43
2018-05-10T18:29:55.205Z,5.90
2018-05-10T18:32:21.500Z,5.10
2018-05-10T18:34:47.777Z,5.50
2018-05-10T18:37:14.058Z,12.53
2018-05-10T18:39:40.588Z,12.93
2018-05-10T18:42:06.866Z,6.33
2018-05-10T18:44:33.157Z,9.33
2018-05-10T18:47:00.196Z,18.87
2018-05-10T18:49:27.252Z,8.77
2018-05-10T18:51:53.651Z,11.63
2018-05-10T18:54:20.079Z,9.23
2018-05-10T18:56:46.442Z,15.40
2018-05-10T18:59:13.534Z,12.53
2018-05-10T19:01:39.830Z,15.70
2018-05-10T19:04:06.111Z,15.00
2018-05-10T19:06:32.515Z,10.20
2018-05-10T19:08:58.828Z,8.27
2018-05-10T19:11:25.180Z,11.90
2018-05-10T19:13:52.302Z,8.10
2018-05-10T19:16:18.628Z,9.13
2018-05-10T19:18:45.687Z,8.33
2018-05-10T19:21:12.021Z,10.40
2018-05-10T19:23:38.381Z,7.07
2018-05-10T19:26:04.780Z,11.70
2018-05-10T19:28:31.109Z,7.40
2018-05-10T19:30:57.462Z,7.50
2018-05-10T19:33:24.354Z,9.90
2018-05-10T19:35:50.696Z,11.73
2018-05-10T19:38:17.793Z,7.70
2018-05-10T19:40:44.196Z,8.20
2018-05-10T19:43:10.537Z,7.83
2018-05-10T19:45:36.859Z,8.37
2018-05-10T19:48:03.258Z,11.07
2018-05-10T19:50:29.729Z,9.93
2018-05-10T19:52:56.150Z,12.47
2018-05-10T19:55:23.261Z,18.13
2018-05-10T19:57:49.628Z,19.17
2018-05-10T20:00:16.681Z,21.50
2018-05-10T20:02:43.073Z,23.03
2018-05-10T20:05:09.360Z,23.77
2018-05-10T20:07:35.739Z,23.93
2018-05-10T20:10:02.105Z,26.40
2018-05-10T20:12:29.188Z,23.80
2018-05-10T20:14:55.538Z,25.83
2018-05-10T20:17:21.870Z,26.63
2018-05-10T20:19:48.983Z,25.33
2018-05-10T20:22:15.268Z,25.03
2018-05-10T20:24:41.594Z,26.53
2018-05-10T20:27:07.952Z,23.27
2018-05-10T20:29:35.907Z,27.87
2018-05-10T20:32:02.339Z,22.43
2018-05-10T20:34:28.718Z,23.73
2018-05-10T20:36:55.074Z,25.37
2018-05-10T20:39:21.384Z,26.93
2018-05-10T20:41:47.847Z,26.23
2018-05-10T20:44:14.400Z,34.33
2018-05-10T20:46:41.695Z,28.57
2018-05-10T20:49:08.770Z,37.27
2018-05-10T20:51:35.204Z,32.27
2018-05-10T20:54:02.415Z,29.83
2018-05-10T20:56:29.612Z,27.73
2018-05-10T20:58:55.905Z,32.93
2018-05-10T21:01:23.336Z,30.70
2018-05-10T21:03:49.729Z,36.57
2018-05-10T21:06:16.035Z,31.23
2018-05-10T21:08:42.335Z,34.07
2018-05-10T21:11:08.648Z,33.90
2018-05-10T21:13:35.101Z,43.80
2018-05-10T21:16:01.520Z,36.80
2018-05-10T21:18:27.921Z,35.43
2018-05-10T21:20:54.213Z,36.70
2018-05-10T21:23:21.263Z,37.13
2018-05-10T21:25:48.307Z,37.90
2018-05-10T21:28:14.613Z,38.70
2018-05-10T21:30:40.941Z,39.07
2018-05-10T21:33:07.322Z,40.60
2018-05-10T21:35:33.596Z,39.80
2018-05-10T21:37:59.924Z,43.57
2018-05-10T21:40:26.490Z,41.00
2018-05-10T21:42:53.846Z,37.80
2018-05-10T21:45:20.126Z,41.70
2018-05-10T21:47:54.378Z,42.80
2018-05-10T21:53:33.590Z,39.67
2018-05-10T21:56:12.840Z,45.80
2018-05-10T21:58:39.254Z,39.07
2018-05-10T22:01:05.574Z,40.03
2018-05-10T22:03:32.011Z,42.27
2018-05-10T22:05:58.352Z,38.50
2018-05-10T22:08:24.828Z,44.90
2018-05-10T22:10:51.163Z,39.40
2018-05-10T22:13:17.543Z,44.67
2018-05-10T22:15:43.883Z,39.90
2018-05-10T22:18:10.333Z,47.93
2018-05-10T22:20:36.664Z,39.20
2018-05-10T22:23:03.019Z,38.23
2018-05-10T22:25:29.305Z,40.30
2018-05-10T22:27:55.628Z,38.50
2018-05-10T22:30:21.988Z,38.60
2018-05-10T22:32:48.300Z,33.70
2018-05-10T22:35:14.641Z,40.23
2018-05-10T22:37:40.916Z,37.20
2018-05-10T22:40:07.214Z,33.07
2018-05-10T22:42:33.551Z,35.27
2018-05-10T22:44:59.936Z,38.47
2018-05-10T22:47:27.002Z,34.30
2018-05-10T22:49:53.395Z,33.20
2018-05-10T22:52:19.656Z,35.23
2018-05-10T22:54:46.294Z,31.50
2018-05-10T22:57:12.585Z,34.30
2018-05-10T22:59:38.906Z,38.93
2018-05-10T23:02:05.213Z,31.63
2018-05-10T23:04:31.524Z,34.63
2018-05-10T23:06:57.814Z,38.63
2018-05-10T23:09:24.131Z,34.00
2018-05-10T23:11:50.426Z,35.93
2018-05-10T23:14:16.740Z,40.47
2018-05-10T23:16:43.118Z,30.87
2018-05-10T23:19:09.504Z,32.00
2018-05-10T23:21:35.873Z,32.33
2018-05-10T23:24:02.193Z,31.53
2018-05-10T23:26:28.515Z,29.00
2018-05-10T23:28:54.833Z,35.90
2018-05-10T23:31:28.086Z,31.33
2018-05-10T23:33:54.415Z,30.63
2018-05-10T23:36:20.703Z,31.53
2018-05-10T23:38:47.001Z,36.70
2018-05-10T23:41:14.063Z,30.27
2018-05-10T23:43:40.352Z,29.57
2018-05-10T23:46:06.668Z,29.43
2018-05-10T23:48:32.948Z,28.93
2018-05-10T23:50:59.309Z,29.13
2018-05-10T23:53:25.605Z,29.87
2018-05-10T23:55:52.684Z,34.40
2018-05-10T23:58:18.999Z,31.70
